createdAt,value
2023-02-17T00:01:10.939Z,997.2
2023-02-17T00:03:37.026Z,997.3
2023-02-17T00:06:03.103Z,997.2
2023-02-17T00:08:29.239Z,997.2
2023-02-17T00:10:55.294Z,997.3
2023-02-17T00:13:20.412Z,997.2
2023-02-17T00:15:46.480Z,997.3
2023-02-17T00:18:12.590Z,997.2
2023-02-17T00:20:38.689Z,997.1
2023-02-17T00:23:04.766Z,997.1
2023-02-17T00:25:30.863Z,997.2
2023-02-17T00:27:56.953Z,997.1
2023-02-17T00:30:22.060Z,997
2023-02-17T00:32:47.184Z,997
2023-02-17T00:35:12.342Z,997.1
2023-02-17T00:37:37.439Z,997
2023-02-17T00:40:02.551Z,997
2023-02-17T00:42:27.674Z,997
2023-02-17T00:44:52.781Z,997.1
2023-02-17T00:47:18.873Z,997
2023-02-17T00:49:44.977Z,997.1
2023-02-17T00:52:11.066Z,997.1
2023-02-17T00:54:37.146Z,997
2023-02-17T00:57:03.346Z,997
2023-02-17T00:59:29.326Z,997
2023-02-17T01:01:55.463Z,997.1
2023-02-17T01:04:21.732Z,997.1
2023-02-17T01:06:47.617Z,997.1
2023-02-17T01:09:13.721Z,997.1
2023-02-17T01:11:39.839Z,997.1
2023-02-17T01:14:05.916Z,997.2
2023-02-17T01:16:31.051Z,997.2
2023-02-17T01:18:57.133Z,997.1
2023-02-17T01:21:23.235Z,997.1
2023-02-17T01:23:49.310Z,997
2023-02-17T01:26:15.397Z,996.9
2023-02-17T01:28:41.545Z,996.9
2023-02-17T01:31:06.644Z,996.8
2023-02-17T01:33:31.826Z,996.9
2023-02-17T01:35:57.845Z,996.9
2023-02-17T01:38:24.005Z,996.8
2023-02-17T01:40:50.025Z,996.8
2023-02-17T01:43:16.126Z,996.8
2023-02-17T01:45:42.209Z,996.8
2023-02-17T01:48:08.306Z,996.8
2023-02-17T01:50:34.393Z,996.7
2023-02-17T01:53:00.527Z,996.8
2023-02-17T01:55:26.590Z,996.8
2023-02-17T01:57:52.681Z,996.8
2023-02-17T02:00:18.788Z,996.8
2023-02-17T02:02:44.869Z,996.7
2023-02-17T02:05:09.991Z,996.7
2023-02-17T02:07:36.098Z,996.6
2023-02-17T02:10:02.173Z,996.5
2023-02-17T02:12:28.267Z,996.5
2023-02-17T02:14:54.374Z,996.5
2023-02-17T02:17:20.493Z,996.5
2023-02-17T02:19:46.565Z,996.6
2023-02-17T02:22:11.682Z,996.6
2023-02-17T02:24:36.823Z,996.5
2023-02-17T02:27:01.915Z,996.5
2023-02-17T02:29:27.046Z,996.5
2023-02-17T02:31:53.156Z,996.5
2023-02-17T02:34:19.230Z,996.5
2023-02-17T02:36:45.334Z,996.4
2023-02-17T02:39:11.432Z,996.5
2023-02-17T02:41:37.586Z,996.5
2023-02-17T02:44:03.617Z,996.4
2023-02-17T02:46:29.691Z,996.4
2023-02-17T02:48:55.835Z,996.3
2023-02-17T02:51:21.950Z,996.4
2023-02-17T02:53:48.138Z,996.4
2023-02-17T02:56:14.083Z,996.4
2023-02-17T02:58:40.166Z,996.4
2023-02-17T03:01:05.281Z,996.4
2023-02-17T03:03:31.450Z,996.3
2023-02-17T03:05:57.467Z,996.4
2023-02-17T03:08:23.577Z,996.3
2023-02-17T03:10:49.671Z,996.3
2023-02-17T03:13:15.755Z,996.3
2023-02-17T03:15:41.867Z,996.3
2023-02-17T03:18:07.017Z,996.3
2023-02-17T03:20:32.090Z,996.2
2023-02-17T03:22:58.217Z,996.2
2023-02-17T03:25:24.353Z,996.2
2023-02-17T03:27:50.384Z,996.1
2023-02-17T03:30:16.484Z,996.1
2023-02-17T03:32:41.619Z,996.1
2023-02-17T03:35:06.738Z,996.1
2023-02-17T03:37:31.902Z,996.1
2023-02-17T03:39:56.955Z,996.1
2023-02-17T03:42:22.083Z,996.1
2023-02-17T03:44:47.230Z,996.1
2023-02-17T03:47:13.292Z,996.2
2023-02-17T03:49:39.392Z,996.1
2023-02-17T03:52:05.487Z,996.2
2023-02-17T03:54:31.559Z,996.2
2023-02-17T03:56:57.746Z,996.2
2023-02-17T03:59:23.744Z,996.2
2023-02-17T04:01:49.868Z,996.2
2023-02-17T04:04:15.976Z,996.2
2023-02-17T04:06:42.032Z,996.2
2023-02-17T04:09:08.139Z,996.2
2023-02-17T04:11:34.246Z,996.3
2023-02-17T04:14:00.347Z,996.2
2023-02-17T04:16:25.443Z,996.1
2023-02-17T04:18:51.525Z,996.2
2023-02-17T04:21:17.652Z,996.2
2023-02-17T04:23:43.720Z,996.3
2023-02-17T04:26:09.803Z,996.3
2023-02-17T04:28:35.978Z,996.4
2023-02-17T04:31:01.996Z,996.3
2023-02-17T04:33:27.129Z,996.4
2023-02-17T04:35:52.257Z,996.4
2023-02-17T04:38:17.380Z,996.3
2023-02-17T04:40:42.480Z,996.3
2023-02-17T04:43:08.577Z,996.3
2023-02-17T04:45:34.659Z,996.3
2023-02-17T04:48:00.774Z,996.3
2023-02-17T04:50:26.860Z,996.3
2023-02-17T04:52:52.948Z,996.3
2023-02-17T04:55:19.071Z,996.3
2023-02-17T04:57:45.134Z,996.2
2023-02-17T05:00:11.237Z,996.3
2023-02-17T05:02:37.341Z,996.2
2023-02-17T05:05:03.423Z,996.2
2023-02-17T05:07:29.521Z,996.1
2023-02-17T05:09:55.640Z,996.1
2023-02-17T05:12:20.735Z,996.1
2023-02-17T05:14:46.829Z,996.1
2023-02-17T05:17:12.920Z,996.1
2023-02-17T05:19:39.013Z,996.2
2023-02-17T05:22:05.128Z,996.1
2023-02-17T05:24:31.226Z,996.1
2023-02-17T05:26:57.332Z,996.1
2023-02-17T05:29:22.427Z,996.1
2023-02-17T05:31:47.533Z,996.1
2023-02-17T05:34:13.643Z,996.1
2023-02-17T05:36:39.745Z,996.2
2023-02-17T05:39:05.839Z,996.2
2023-02-17T05:41:31.934Z,996.2
2023-02-17T05:43:58.026Z,996.2
2023-02-17T05:46:24.123Z,996.2
2023-02-17T05:48:50.206Z,996.1
2023-02-17T05:51:16.425Z,996.2
2023-02-17T05:53:42.450Z,996.3
2023-02-17T05:56:08.503Z,996.3
2023-02-17T05:58:34.599Z,996.3
2023-02-17T06:01:00.718Z,996.4
2023-02-17T06:03:25.814Z,996.4
2023-02-17T06:05:51.910Z,996.4
2023-02-17T06:08:18.016Z,996.4
2023-02-17T06:10:44.091Z,996.4
2023-02-17T06:13:10.242Z,996.5
2023-02-17T06:15:36.307Z,996.4
2023-02-17T06:18:02.399Z,996.5
2023-02-17T06:20:27.523Z,996.5
2023-02-17T06:22:52.620Z,996.5
2023-02-17T06:25:17.738Z,996.5
2023-02-17T06:27:42.861Z,996.5
2023-02-17T06:30:08.957Z,996.6
2023-02-17T06:32:35.068Z,996.6
2023-02-17T06:35:01.142Z,996.6
2023-02-17T06:37:27.237Z,996.6
2023-02-17T06:39:53.321Z,996.6
2023-02-17T06:42:19.429Z,996.7
2023-02-17T06:44:45.611Z,996.7
2023-02-17T06:47:11.618Z,996.7
2023-02-17T06:49:37.746Z,996.7
2023-02-17T06:52:03.800Z,996.6
2023-02-17T06:54:29.914Z,996.6
2023-02-17T06:56:56.007Z,996.6
2023-02-17T06:59:21.117Z,996.6
2023-02-17T07:01:47.203Z,996.6
2023-02-17T07:04:13.312Z,996.6
2023-02-17T07:06:39.476Z,996.6
2023-02-17T07:09:05.487Z,996.6
2023-02-17T07:11:31.603Z,996.7
2023-02-17T07:13:57.678Z,996.7
2023-02-17T07:16:22.844Z,996.7
2023-02-17T07:18:47.991Z,996.7
2023-02-17T07:21:13.083Z,996.7
2023-02-17T07:23:38.163Z,996.7
2023-02-17T07:26:04.322Z,996.8
2023-02-17T07:28:30.477Z,996.8
2023-02-17T07:30:56.492Z,996.8
2023-02-17T07:33:22.561Z,996.8
2023-02-17T07:35:48.656Z,996.8
2023-02-17T07:38:14.723Z,996.7
2023-02-17T07:40:40.828Z,996.7
2023-02-17T07:43:06.923Z,996.7
2023-02-17T07:45:33.047Z,996.8
2023-02-17T07:47:59.114Z,996.7
2023-02-17T07:52:51.297Z,996.7
2023-02-17T07:55:16.530Z,996.7
2023-02-17T07:57:42.623Z,996.8
2023-02-17T08:00:08.659Z,996.9
2023-02-17T08:02:34.688Z,996.9
2023-02-17T08:05:00.861Z,996.9
2023-02-17T08:07:26.965Z,997
2023-02-17T08:09:53.158Z,997
2023-02-17T08:12:19.261Z,996.9
2023-02-17T08:14:44.273Z,997
2023-02-17T08:17:09.353Z,997
2023-02-17T08:19:34.468Z,996.9
2023-02-17T08:21:59.545Z,996.9
2023-02-17T08:24:24.744Z,996.8
2023-02-17T08:26:49.770Z,996.9
2023-02-17T08:29:15.917Z,997
2023-02-17T08:31:41.987Z,996.9
2023-02-17T08:34:07.183Z,996.9
2023-02-17T08:36:32.227Z,997
2023-02-17T08:38:58.307Z,997
2023-02-17T08:41:24.410Z,997
2023-02-17T08:43:50.497Z,996.8
2023-02-17T08:46:16.662Z,996.9
2023-02-17T08:48:42.761Z,996.8
2023-02-17T08:51:08.847Z,997
2023-02-17T08:53:33.884Z,996.9
2023-02-17T08:55:59.988Z,997
2023-02-17T08:58:26.186Z,996.9
2023-02-17T09:00:52.168Z,996.8
2023-02-17T09:03:18.438Z,997
2023-02-17T09:05:44.550Z,997
2023-02-17T09:08:10.528Z,997
2023-02-17T09:10:36.627Z,997
2023-02-17T09:13:02.689Z,996.9
2023-02-17T09:15:28.848Z,997.1
2023-02-17T09:17:54.914Z,997
2023-02-17T09:20:20.995Z,997
2023-02-17T09:22:47.299Z,997.1
2023-02-17T09:25:12.251Z,997
2023-02-17T09:27:37.337Z,997.2
2023-02-17T09:30:03.407Z,997.1
2023-02-17T09:32:28.592Z,997
2023-02-17T09:34:53.691Z,997.1
2023-02-17T09:37:19.693Z,997
2023-02-17T09:39:45.825Z,997
2023-02-17T09:42:11.896Z,997.1
2023-02-17T09:44:38.025Z,997.1
2023-02-17T09:47:04.160Z,997.1
2023-02-17T09:49:30.174Z,997.2
2023-02-17T09:51:56.280Z,997.1
2023-02-17T09:54:22.381Z,997.1
2023-02-17T09:56:48.470Z,997.2
2023-02-17T09:59:14.553Z,997.2
2023-02-17T10:01:40.657Z,997.3
2023-02-17T10:04:06.765Z,997.3
2023-02-17T10:06:31.879Z,997.4
2023-02-17T10:08:57.948Z,997.4
2023-02-17T10:11:24.110Z,997.3
2023-02-17T10:13:50.158Z,997.3
2023-02-17T10:16:16.226Z,997.3
2023-02-17T10:18:42.352Z,997.2
2023-02-17T10:21:08.413Z,997.2
2023-02-17T10:23:33.606Z,997.2
2023-02-17T10:25:58.682Z,997.2
2023-02-17T10:28:24.760Z,997.2
2023-02-17T10:30:50.980Z,997.1
2023-02-17T10:33:15.957Z,997.2
2023-02-17T10:35:41.085Z,997.2
2023-02-17T10:38:07.180Z,997.2
2023-02-17T10:40:33.266Z,997.2
2023-02-17T10:42:59.370Z,997.3
2023-02-17T10:45:25.462Z,997.2
2023-02-17T10:47:51.587Z,997.2
2023-02-17T10:50:17.741Z,997.2
2023-02-17T10:52:43.784Z,997.1
2023-02-17T10:55:09.867Z,997.1
2023-02-17T10:57:35.939Z,997.2
2023-02-17T11:00:02.043Z,997.2
2023-02-17T11:02:28.142Z,997.1
2023-02-17T11:04:54.253Z,997.1
2023-02-17T11:07:19.358Z,997
2023-02-17T11:09:45.435Z,997
2023-02-17T11:12:11.600Z,997.1
2023-02-17T11:14:37.645Z,997
2023-02-17T11:17:03.797Z,997
2023-02-17T11:19:29.850Z,996.9
2023-02-17T11:21:55.954Z,997
2023-02-17T11:24:21.092Z,996.8
2023-02-17T11:26:46.161Z,996.8
2023-02-17T11:29:11.269Z,996.8
2023-02-17T11:31:36.394Z,996.8
2023-02-17T11:34:02.596Z,996.8
2023-02-17T11:36:28.619Z,996.7
2023-02-17T11:38:54.699Z,996.8
2023-02-17T11:41:20.772Z,996.7
2023-02-17T11:43:47.025Z,996.7
2023-02-17T11:46:13.003Z,996.7
2023-02-17T11:48:39.112Z,996.8
2023-02-17T11:51:05.183Z,996.7
2023-02-17T11:53:31.322Z,996.8
2023-02-17T11:55:57.365Z,996.8
2023-02-17T11:58:23.523Z,996.8
2023-02-17T12:00:49.543Z,996.8
2023-02-17T12:03:14.648Z,996.8
2023-02-17T12:05:40.751Z,996.9
2023-02-17T12:08:06.832Z,996.8
2023-02-17T12:10:32.934Z,996.8
2023-02-17T12:12:59.037Z,996.8
2023-02-17T12:15:25.176Z,996.8
2023-02-17T12:17:51.244Z,996.9
2023-02-17T12:20:16.678Z,996.9
2023-02-17T12:22:41.478Z,996.9
2023-02-17T12:25:07.574Z,996.9
2023-02-17T12:27:33.659Z,996.9
2023-02-17T12:29:59.960Z,996.9
2023-02-17T12:32:25.855Z,996.9
2023-02-17T12:34:52.007Z,996.8
2023-02-17T12:37:18.039Z,996.8
2023-02-17T12:39:44.119Z,996.8
2023-02-17T12:42:10.214Z,996.8
2023-02-17T12:44:36.337Z,996.7
2023-02-17T12:47:02.409Z,996.7
2023-02-17T12:49:28.549Z,996.7
2023-02-17T12:51:54.612Z,996.6
2023-02-17T12:54:19.772Z,996.7
2023-02-17T12:56:45.811Z,996.6
2023-02-17T12:59:11.898Z,996.6
2023-02-17T13:01:37.998Z,996.6
2023-02-17T13:04:04.098Z,996.6
2023-02-17T13:06:30.189Z,996.5
2023-02-17T13:08:56.283Z,996.5
2023-02-17T13:11:21.403Z,996.6
2023-02-17T13:13:46.541Z,996.5
2023-02-17T13:16:12.651Z,996.6
2023-02-17T13:18:38.715Z,996.5
2023-02-17T13:21:04.835Z,996.6
2023-02-17T13:23:30.944Z,996.6
2023-02-17T13:25:57.012Z,996.6
2023-02-17T13:28:23.170Z,996.6
2023-02-17T13:30:49.193Z,996.6
2023-02-17T13:33:15.303Z,996.5
2023-02-17T13:35:41.385Z,996.5
2023-02-17T13:38:07.482Z,996.5
2023-02-17T13:40:33.583Z,996.5
2023-02-17T13:42:59.684Z,996.5
2023-02-17T13:45:24.880Z,996.5
2023-02-17T13:47:50.902Z,996.5
2023-02-17T13:50:16.989Z,996.5
2023-02-17T13:52:43.230Z,996.5
2023-02-17T13:55:09.192Z,996.4
2023-02-17T13:57:35.272Z,996.5
2023-02-17T14:00:01.373Z,996.4
2023-02-17T14:02:26.480Z,996.4
2023-02-17T14:04:51.616Z,996.4
2023-02-17T14:07:16.750Z,996.3
2023-02-17T14:09:41.841Z,996.3
2023-02-17T14:12:07.040Z,996.3
2023-02-17T14:14:32.072Z,996.2
2023-02-17T14:16:58.152Z,996.3
2023-02-17T14:19:24.345Z,996.2
2023-02-17T14:21:50.341Z,996.2
2023-02-17T14:24:16.490Z,996.1
2023-02-17T14:26:42.533Z,996.1
2023-02-17T14:29:08.634Z,996.1
2023-02-17T14:31:34.741Z,996.1
2023-02-17T14:34:00.926Z,996.1
2023-02-17T14:36:26.911Z,996.2
2023-02-17T14:38:53.009Z,996.2
2023-02-17T14:41:19.166Z,996.2
2023-02-17T14:43:45.280Z,996.2
2023-02-17T14:46:10.319Z,996.1
2023-02-17T14:48:36.466Z,996.1
2023-02-17T14:51:02.517Z,996.1
2023-02-17T14:53:28.669Z,996.1
2023-02-17T14:55:54.708Z,996.2
2023-02-17T14:58:20.842Z,996.2
2023-02-17T15:00:46.905Z,996.1
2023-02-17T15:03:12.027Z,996.1
2023-02-17T15:05:37.128Z,996.1
2023-02-17T15:08:02.282Z,996.1
2023-02-17T15:10:27.358Z,996
2023-02-17T15:12:53.464Z,996.1
2023-02-17T15:15:19.591Z,996.1
2023-02-17T15:17:45.695Z,996.1
2023-02-17T15:20:11.791Z,996
2023-02-17T15:22:37.850Z,995.9
2023-02-17T15:25:03.937Z,996
2023-02-17T15:27:30.073Z,996.1
2023-02-17T15:29:56.141Z,996.1
2023-02-17T15:32:22.265Z,996.1
2023-02-17T15:34:48.390Z,996
2023-02-17T15:37:14.405Z,996
2023-02-17T15:39:40.519Z,996.1
2023-02-17T15:42:05.632Z,996
2023-02-17T15:44:31.708Z,996
2023-02-17T15:46:57.810Z,996.1
2023-02-17T15:49:23.984Z,996.2
2023-02-17T15:54:16.091Z,996.1
2023-02-17T15:56:42.200Z,996.1
2023-02-17T15:59:08.377Z,996.2
2023-02-17T16:01:33.471Z,996
2023-02-17T16:03:58.534Z,996
2023-02-17T16:06:24.625Z,996.1
2023-02-17T16:08:50.732Z,996
2023-02-17T16:11:16.868Z,995.9
2023-02-17T16:13:42.949Z,996.1
2023-02-17T16:16:09.009Z,996
2023-02-17T16:18:35.122Z,996.1
2023-02-17T16:21:01.208Z,996.1
2023-02-17T16:23:27.338Z,996.1
2023-02-17T16:25:53.398Z,996.1
2023-02-17T16:28:19.537Z,996
2023-02-17T16:30:45.643Z,996
2023-02-17T16:33:11.754Z,996.1
2023-02-17T16:35:36.789Z,996
2023-02-17T16:38:02.928Z,995.9
2023-02-17T16:40:28.981Z,996.1
2023-02-17T16:42:55.070Z,996.1
2023-02-17T16:45:21.160Z,996.1
2023-02-17T16:47:47.332Z,996.1
2023-02-17T16:50:13.361Z,996.1
2023-02-17T16:52:38.623Z,996.2
2023-02-17T16:55:03.615Z,996.3
2023-02-17T16:57:28.716Z,996.2
2023-02-17T16:59:53.814Z,996.3
2023-02-17T17:02:18.965Z,996.3
2023-02-17T17:04:44.050Z,996.2
2023-02-17T17:07:10.162Z,996.3
2023-02-17T17:09:36.293Z,996.3
2023-02-17T17:12:02.416Z,996.3
2023-02-17T17:14:28.450Z,996.2
2023-02-17T17:16:54.741Z,996.3
2023-02-17T17:19:20.700Z,996.3
2023-02-17T17:21:46.835Z,996.3
2023-02-17T17:24:12.919Z,996.2
2023-02-17T17:26:38.913Z,996.3
2023-02-17T17:29:05.014Z,996.3
2023-02-17T17:31:31.120Z,996.4
2023-02-17T17:33:57.199Z,996.2
2023-02-17T17:36:22.371Z,996.1
2023-02-17T17:38:48.415Z,996.1
2023-02-17T17:41:14.570Z,996.1
2023-02-17T17:43:40.621Z,996.1
2023-02-17T17:46:06.695Z,996.2
2023-02-17T17:48:32.795Z,996.2
2023-02-17T17:50:58.890Z,996.2
2023-02-17T17:53:24.025Z,996.3
2023-02-17T17:55:49.144Z,996.3
2023-02-17T17:58:15.262Z,996.3
2023-02-17T18:00:41.351Z,996.3
2023-02-17T18:03:07.422Z,996.3
2023-02-17T18:05:33.528Z,996.5
2023-02-17T18:07:59.641Z,996.3
2023-02-17T18:10:25.724Z,996.3
2023-02-17T18:12:51.785Z,996.4
2023-02-17T18:15:17.890Z,996.5
2023-02-17T18:17:44.010Z,996.5
2023-02-17T18:20:10.080Z,996.5
2023-02-17T18:22:36.176Z,996.5
2023-02-17T18:25:02.380Z,996.5
2023-02-17T18:27:27.444Z,996.6
2023-02-17T18:29:52.614Z,996.6
2023-02-17T18:32:17.650Z,996.7
2023-02-17T18:34:42.831Z,996.7
2023-02-17T18:37:07.924Z,996.7
2023-02-17T18:39:33.133Z,996.6
2023-02-17T18:41:59.071Z,996.7
2023-02-17T18:44:25.194Z,996.7
2023-02-17T18:46:51.308Z,996.8
2023-02-17T18:49:17.437Z,996.8
2023-02-17T18:51:43.442Z,996.9
2023-02-17T18:54:09.531Z,997
2023-02-17T18:56:35.715Z,997
2023-02-17T18:59:01.742Z,997.1
2023-02-17T19:01:27.841Z,997.1
2023-02-17T19:03:53.912Z,997.2
2023-02-17T19:06:20.093Z,997.2
2023-02-17T19:08:46.121Z,997.3
2023-02-17T19:11:11.235Z,997.4
2023-02-17T19:13:37.385Z,997.4
2023-02-17T19:16:03.432Z,997.6
2023-02-17T19:18:29.511Z,997.6
2023-02-17T19:20:55.595Z,997.7
2023-02-17T19:23:21.700Z,997.7
2023-02-17T19:25:47.826Z,997.7
2023-02-17T19:28:12.948Z,997.7
2023-02-17T19:30:38.069Z,997.8
2023-02-17T19:33:03.231Z,997.8
2023-02-17T19:35:28.340Z,997.9
2023-02-17T19:37:53.394Z,997.9
2023-02-17T19:40:18.516Z,998
2023-02-17T19:42:44.604Z,998
2023-02-17T19:45:10.725Z,998
2023-02-17T19:47:36.849Z,998.1
2023-02-17T19:50:02.886Z,998.1
2023-02-17T19:52:28.991Z,998
2023-02-17T19:54:55.075Z,998.1
2023-02-17T19:57:21.160Z,998.1
2023-02-17T19:59:47.265Z,998.2
2023-02-17T20:02:13.449Z,998.3
2023-02-17T20:07:05.594Z,998.3
2023-02-17T20:09:31.699Z,998.3
2023-02-17T20:11:56.770Z,998.3
2023-02-17T20:14:22.865Z,998.3
2023-02-17T20:16:49.079Z,998.3
2023-02-17T20:19:15.144Z,998.1
2023-02-17T20:21:41.146Z,998.2
2023-02-17T20:24:07.311Z,998.3
2023-02-17T20:26:33.350Z,998.2
2023-02-17T20:28:58.461Z,998.2
2023-02-17T20:31:23.643Z,998.2
2023-02-17T20:33:49.710Z,998.3
2023-02-17T20:36:15.892Z,998.3
2023-02-17T20:38:41.863Z,998.2
2023-02-17T20:41:07.977Z,998.2
2023-02-17T20:43:34.045Z,998.1
2023-02-17T20:46:00.172Z,998.1
2023-02-17T20:48:26.261Z,998.1
2023-02-17T20:50:52.346Z,998.1
2023-02-17T20:53:18.429Z,998
2023-02-17T20:55:44.656Z,998
2023-02-17T20:58:10.619Z,998.1
2023-02-17T21:00:36.753Z,998.1
2023-02-17T21:03:01.827Z,998
2023-02-17T21:05:27.965Z,998.1
2023-02-17T21:07:54.073Z,998.1
2023-02-17T21:10:20.126Z,998.1
2023-02-17T21:12:46.276Z,998.1
2023-02-17T21:15:12.300Z,998.1
2023-02-17T21:17:38.484Z,998.1
2023-02-17T21:20:03.555Z,998.1
2023-02-17T21:22:28.627Z,998
2023-02-17T21:24:53.745Z,998
2023-02-17T21:27:18.876Z,998
2023-02-17T21:29:44.960Z,997.9
2023-02-17T21:32:11.043Z,998
2023-02-17T21:34:37.206Z,998
2023-02-17T21:37:03.312Z,998
2023-02-17T21:39:29.328Z,998
2023-02-17T21:41:55.479Z,998
2023-02-17T21:44:21.566Z,998
2023-02-17T21:46:47.619Z,998
2023-02-17T21:49:13.732Z,998
2023-02-17T21:51:39.805Z,998.1
2023-02-17T21:54:05.902Z,998
2023-02-17T21:56:32.042Z,998
2023-02-17T21:58:57.175Z,997.9
2023-02-17T22:01:23.205Z,997.9
2023-02-17T22:03:49.368Z,998
2023-02-17T22:06:15.400Z,998
2023-02-17T22:08:41.482Z,998.1
2023-02-17T22:11:07.660Z,997.9
2023-02-17T22:13:33.709Z,998
2023-02-17T22:15:59.780Z,997.9
2023-02-17T22:18:24.897Z,997.9
2023-02-17T22:20:50.005Z,997.9
2023-02-17T22:23:16.109Z,997.9
2023-02-17T22:25:41.243Z,998
2023-02-17T22:28:06.346Z,998
2023-02-17T22:30:32.534Z,998
2023-02-17T22:32:58.579Z,998
2023-02-17T22:35:24.650Z,998.1
2023-02-17T22:37:50.721Z,998
2023-02-17T22:40:16.896Z,998
2023-02-17T22:42:42.992Z,997.9
2023-02-17T22:45:08.994Z,998
2023-02-17T22:47:35.093Z,998
2023-02-17T22:50:01.257Z,998.1
2023-02-17T22:52:27.311Z,998.1
2023-02-17T22:54:53.416Z,998.1
2023-02-17T22:57:19.484Z,998
2023-02-17T22:59:44.581Z,998
2023-02-17T23:02:10.696Z,997.9
2023-02-17T23:04:36.784Z,998
2023-02-17T23:07:02.924Z,998
2023-02-17T23:09:28.969Z,998
2023-02-17T23:11:55.170Z,998
2023-02-17T23:14:21.204Z,998
2023-02-17T23:16:46.273Z,998
2023-02-17T23:19:11.406Z,998
2023-02-17T23:21:37.482Z,998
2023-02-17T23:24:02.634Z,997.9
2023-02-17T23:26:27.726Z,998
2023-02-17T23:28:53.807Z,998
2023-02-17T23:31:20.084Z,998
2023-02-17T23:33:45.998Z,997.9
2023-02-17T23:36:12.105Z,997.9
2023-02-17T23:38:38.182Z,997.9
2023-02-17T23:41:04.285Z,997.8
2023-02-17T23:43:30.378Z,997.8
2023-02-17T23:45:56.492Z,997.9
2023-02-17T23:48:22.567Z,997.9
2023-02-17T23:50:48.670Z,997.9
2023-02-17T23:53:14.767Z,997.9
2023-02-17T23:55:40.889Z,997.9
2023-02-17T23:58:05.977Z,997.9
